Time;durP1;ratioP1;P1;durP2;ratioP2;P2;SDS_P1;SDS_P2;PMS_P1;PMS_P2;Temp;Humidity;BMP_temperature;BMP_pressure;BME280_temperature;BME280_humidity;BME280_pressure;Samples;Min_cycle;Max_cycle;Signal;HPM_P1;HPM_P2
2023/10/13 00:00:34;;;;;;;70.68;34.20;;;;;;;;;;4973427;28;20283;-86
2023/10/13 00:03:00;;;;;;;76.80;34.45;;;;;;;;;;4978512;28;20043;-88
2023/10/13 00:05:27;;;;;;;71.38;34.78;;;;;;;;;;4972853;28;20046;-87
2023/10/13 00:07:54;;;;;;;71.72;34.30;;;;;;;;;;4972234;28;20043;-87
2023/10/13 00:10:21;;;;;;;63.47;32.28;;;;;;;;;;4973410;28;20051;-87
2023/10/13 00:12:49;;;;;;;82.85;34.83;;;;;;;;;;4978216;28;20079;-87
2023/10/13 00:15:17;;;;;;;81.00;35.78;;;;;;;;;;4972113;28;20130;-86
2023/10/13 00:17:43;;;;;;;72.60;31.63;;;;;;;;;;4972189;28;20051;-88
2023/10/13 00:20:38;;;;;;;60.40;27.38;;;;;;;;;;4969978;28;20058;-87
2023/10/13 00:22:59;;;;;;;55.33;25.08;;;;;;;;;;4969001;28;20058;-87
2023/10/13 00:25:31;;;;;;;67.93;30.13;;;;;;;;;;4972433;28;20109;-87
2023/10/13 00:27:58;;;;;;;68.30;28.70;;;;;;;;;;4980071;28;20061;-87
2023/10/13 00:30:33;;;;;;;75.53;32.53;;;;;;;;;;4959674;28;20054;-87
2023/10/13 00:32:59;;;;;;;68.85;32.53;;;;;;;;;;4997022;28;20042;-87
2023/10/13 00:35:35;;;;;;;66.63;31.15;;;;;;;;;;4966146;28;20101;-87
2023/10/13 00:38:12;;;;;;;64.00;30.67;;;;;;;;;;4970099;28;20059;-87
2023/10/13 00:46:07;;;;;;;41.42;18.60;;;;;;;;;;4977662;28;20054;-87
2023/10/13 00:48:51;;;;;;;18.15;12.18;;;;;;;;;;4999411;28;20081;-87
2023/10/13 00:51:34;;;;;;;21.30;11.60;;;;;;;;;;4980046;28;20065;-87
2023/10/13 00:54:11;;;;;;;19.45;10.13;;;;;;;;;;4987910;28;20129;-88
2023/10/13 00:56:46;;;;;;;19.50;9.70;;;;;;;;;;5005582;28;20050;-87
2023/10/13 00:59:14;;;;;;;20.60;9.52;;;;;;;;;;4973400;28;20055;-87
2023/10/13 01:01:42;;;;;;;19.65;9.63;;;;;;;;;;4973661;28;20133;-87
2023/10/13 01:04:11;;;;;;;19.02;9.77;;;;;;;;;;4978755;28;20059;-87
2023/10/13 01:06:38;;;;;;;19.90;9.45;;;;;;;;;;4977509;28;20046;-87
2023/10/13 01:09:38;;;;;;;17.33;8.90;;;;;;;;;;4980683;28;20058;-87
2023/10/13 01:12:00;;;;;;;17.05;8.13;;;;;;;;;;4975100;28;20042;-87
2023/10/13 01:14:28;;;;;;;13.90;7.45;;;;;;;;;;4973391;28;20049;-87
2023/10/13 01:16:58;;;;;;;14.88;7.65;;;;;;;;;;4968791;28;20051;-87
2023/10/13 01:19:28;;;;;;;14.25;9.25;;;;;;;;;;4972154;28;20057;-87
2023/10/13 01:22:01;;;;;;;12.15;7.97;;;;;;;;;;4969823;28;20479;-86
2023/10/13 01:24:31;;;;;;;;;;;;;;;;;;4969395;28;20042;-88
2023/10/13 01:26:57;;;;;;;11.95;6.97;;;;;;;;;;4981670;28;19965;-87
2023/10/13 01:29:28;;;;;;;13.13;6.10;;;;;;;;;;4976019;28;20055;-87
2023/10/13 01:31:55;;;;;;;11.63;6.03;;;;;;;;;;4974731;28;20058;-88
2023/10/13 01:34:24;;;;;;;10.38;5.55;;;;;;;;;;4974091;28;20399;-87
2023/10/13 01:36:53;;;;;;;8.70;5.35;;;;;;;;;;4974036;28;20442;-88
2023/10/13 01:39:28;;;;;;;12.80;5.25;;;;;;;;;;4982384;28;20581;-87
2023/10/13 01:41:57;;;;;;;13.52;5.85;;;;;;;;;;4969310;28;20129;-87
2023/10/13 01:44:23;;;;;;;13.50;5.70;;;;;;;;;;4983545;28;20051;-87
2023/10/13 01:46:51;;;;;;;11.88;5.78;;;;;;;;;;4971567;28;20043;-87
2023/10/13 01:49:17;;;;;;;9.75;5.43;;;;;;;;;;4988182;28;20073;-88
2023/10/13 01:51:43;;;;;;;17.38;5.82;;;;;;;;;;4986939;28;20058;-88
2023/10/13 01:54:13;;;;;;;13.10;4.72;;;;;;;;;;4993403;28;20046;-87
2023/10/13 01:56:43;;;;;;;9.80;4.40;;;;;;;;;;4974475;28;20039;-87
2023/10/13 01:59:10;;;;;;;14.27;5.70;;;;;;;;;;4982724;28;20558;-87
2023/10/13 02:01:37;;;;;;;14.13;5.72;;;;;;;;;;4982214;28;20054;-88
2023/10/13 02:04:03;;;;;;;13.68;5.47;;;;;;;;;;4969979;28;20055;-87
2023/10/13 02:06:33;;;;;;;13.88;5.90;;;;;;;;;;4978288;28;20141;-88
2023/10/13 02:09:12;;;;;;;10.73;5.88;;;;;;;;;;4975483;28;20043;-87
2023/10/13 02:11:43;;;;;;;11.50;5.93;;;;;;;;;;4998066;28;20043;-87
2023/10/13 02:14:12;;;;;;;13.10;6.32;;;;;;;;;;4972111;28;20075;-88
2023/10/13 02:16:38;;;;;;;12.30;6.57;;;;;;;;;;4965816;28;20038;-87
2023/10/13 02:19:04;;;;;;;14.20;7.13;;;;;;;;;;4966522;28;20454;-87
2023/10/13 02:21:38;;;;;;;11.50;6.78;;;;;;;;;;4965401;28;20050;-87
2023/10/13 02:24:11;;;;;;;17.23;7.35;;;;;;;;;;4965918;28;20051;-88
2023/10/13 02:26:41;;;;;;;12.90;6.97;;;;;;;;;;4966434;28;20054;-87
2023/10/13 02:29:07;;;;;;;13.48;6.53;;;;;;;;;;4998315;28;20053;-87
2023/10/13 02:31:36;;;;;;;17.48;7.40;;;;;;;;;;4967282;28;20046;-86
2023/10/13 02:34:07;;;;;;;14.85;7.57;;;;;;;;;;4966314;28;20043;-86
2023/10/13 02:36:44;;;;;;;17.40;8.25;;;;;;;;;;4968266;28;20061;-87
2023/10/13 02:39:10;;;;;;;18.10;9.23;;;;;;;;;;4963488;28;20042;-87
2023/10/13 02:41:37;;;;;;;15.57;9.40;;;;;;;;;;4963539;28;20046;-86
2023/10/13 02:44:06;;;;;;;20.85;9.38;;;;;;;;;;4963307;28;20270;-87
2023/10/13 02:46:35;;;;;;;18.65;10.10;;;;;;;;;;5000052;28;20290;-86
2023/10/13 02:49:09;;;;;;;17.58;12.35;;;;;;;;;;4962323;28;20406;-86
2023/10/13 02:51:35;;;;;;;26.83;12.57;;;;;;;;;;4965929;28;20046;-86
2023/10/13 02:54:10;;;;;;;22.05;11.77;;;;;;;;;;4978317;28;20109;-87
2023/10/13 02:56:36;;;;;;;21.85;12.05;;;;;;;;;;4965012;28;20047;-86
2023/10/13 02:59:06;;;;;;;20.10;11.50;;;;;;;;;;4965459;28;20051;-86
2023/10/13 03:01:35;;;;;;;15.35;10.70;;;;;;;;;;4966451;28;20098;-87
2023/10/13 03:04:08;;;;;;;17.05;10.85;;;;;;;;;;4964588;28;20046;-87
2023/10/13 03:06:35;;;;;;;16.08;10.68;;;;;;;;;;4993514;28;20046;-86
2023/10/13 03:09:18;;;;;;;18.08;12.48;;;;;;;;;;4982742;28;20051;-86
2023/10/13 03:11:50;;;;;;;22.88;12.88;;;;;;;;;;4963187;28;20055;-86
2023/10/13 03:14:30;;;;;;;25.67;13.50;;;;;;;;;;4962649;28;20488;-87
2023/10/13 03:17:09;;;;;;;22.40;14.40;;;;;;;;;;4970324;28;20042;-87
2023/10/13 03:19:39;;;;;;;24.98;15.10;;;;;;;;;;4969284;28;20053;-86
2023/10/13 03:22:15;;;;;;;21.30;15.38;;;;;;;;;;4966272;28;20046;-86
2023/10/13 03:24:47;;;;;;;25.17;15.02;;;;;;;;;;4973484;28;20078;-87
2023/10/13 03:27:17;;;;;;;27.52;16.50;;;;;;;;;;4965914;28;20426;-86
2023/10/13 03:29:44;;;;;;;27.98;17.02;;;;;;;;;;4973847;28;20041;-87
2023/10/13 03:32:17;;;;;;;32.38;18.40;;;;;;;;;;4967628;28;20141;-86
2023/10/13 03:35:31;;;;;;;32.88;19.52;;;;;;;;;;4965903;28;20093;-87
2023/10/13 03:37:41;;;;;;;28.23;19.13;;;;;;;;;;4960313;28;20138;-87
2023/10/13 03:43:09;;;;;;;33.67;21.42;;;;;;;;;;4992606;28;20054;-87
2023/10/13 03:45:43;;;;;;;41.00;21.58;;;;;;;;;;4961614;28;20053;-86
2023/10/13 03:48:51;;;;;;;43.92;22.30;;;;;;;;;;4970298;28;20426;-86
2023/10/13 03:51:03;;;;;;;32.35;19.95;;;;;;;;;;4964558;28;20053;-86
2023/10/13 03:53:33;;;;;;;37.75;20.48;;;;;;;;;;4963319;28;20058;-87
2023/10/13 03:56:14;;;;;;;34.72;21.70;;;;;;;;;;4996845;28;20137;-87
2023/10/13 03:58:47;;;;;;;34.05;20.95;;;;;;;;;;4962770;28;20117;-86
2023/10/13 04:01:17;;;;;;;36.17;21.15;;;;;;;;;;4963082;28;20061;-87
2023/10/13 04:17:24;;;;;;;31.15;15.93;;;;;;;;;;4962464;28;20051;-86
2023/10/13 04:34:18;;;;;;;27.90;14.27;;;;;;;;;;4959467;28;20113;-86
2023/10/13 04:39:08;;;;;;;16.20;10.55;;;;;;;;;;4972481;28;19922;-86
2023/10/13 04:49:29;;;;;;;17.10;9.07;;;;;;;;;;4961945;28;20065;-86
2023/10/13 04:51:59;;;;;;;20.65;10.38;;;;;;;;;;4995133;28;20082;-86
2023/10/13 04:54:45;;;;;;;21.70;11.05;;;;;;;;;;4964853;28;20051;-86
2023/10/13 06:29:37;;;;;;;39.80;9.98;;;;;;;;;;4969179;28;20055;-88
2023/10/13 06:32:10;;;;;;;37.45;10.50;;;;;;;;;;4972234;28;20105;-88
2023/10/13 06:34:44;;;;;;;38.30;10.27;;;;;;;;;;4972753;28;20042;-88
2023/10/13 06:37:30;;;;;;;51.75;11.27;;;;;;;;;;4979134;28;20065;-88
2023/10/13 06:39:56;;;;;;;43.63;10.95;;;;;;;;;;5006185;28;20047;-87
2023/10/13 06:42:27;;;;;;;47.50;11.20;;;;;;;;;;4972631;28;20055;-87
2023/10/13 06:44:56;;;;;;;36.53;8.95;;;;;;;;;;5001509;28;20053;-87
2023/10/13 06:47:24;;;;;;;41.25;10.25;;;;;;;;;;4972939;28;20047;-87
2023/10/13 06:49:54;;;;;;;33.42;9.35;;;;;;;;;;4971299;28;20137;-88
2023/10/13 06:52:22;;;;;;;38.65;9.93;;;;;;;;;;4973333;28;20465;-88
2023/10/13 06:54:50;;;;;;;40.05;11.10;;;;;;;;;;4973693;28;20189;-88
2023/10/13 06:57:20;;;;;;;38.90;10.45;;;;;;;;;;4969344;28;20047;-88
2023/10/13 06:59:49;;;;;;;37.33;10.82;;;;;;;;;;4972965;28;20050;-87
2023/10/13 07:02:33;;;;;;;34.47;9.68;;;;;;;;;;4970253;28;20061;-88
2023/10/13 07:05:11;;;;;;;33.58;9.48;;;;;;;;;;4969275;28;20040;-84
2023/10/13 07:07:38;;;;;;;39.60;10.70;;;;;;;;;;4966298;28;20405;-82
2023/10/13 07:10:08;;;;;;;28.63;9.60;;;;;;;;;;4965111;28;20050;-82
2023/10/13 07:12:34;;;;;;;34.15;9.23;;;;;;;;;;4966694;28;20049;-83
2023/10/13 07:15:04;;;;;;;37.05;10.38;;;;;;;;;;4971884;28;20122;-84
2023/10/13 07:17:37;;;;;;;35.78;10.00;;;;;;;;;;4966464;28;20049;-83
2023/10/13 07:22:57;;;;;;;35.33;9.07;;;;;;;;;;4965086;28;20045;-82
2023/10/13 07:25:26;;;;;;;36.40;10.45;;;;;;;;;;4963949;28;20173;-82
2023/10/13 07:27:54;;;;;;;30.02;10.07;;;;;;;;;;4970491;28;20475;-83
2023/10/13 07:30:26;;;;;;;28.67;10.63;;;;;;;;;;4973257;28;20054;-83
2023/10/13 07:32:52;;;;;;;39.95;10.73;;;;;;;;;;4970029;28;20407;-84
2023/10/13 07:35:20;;;;;;;29.90;10.70;;;;;;;;;;4972539;28;20046;-84
2023/10/13 07:37:52;;;;;;;26.85;9.07;;;;;;;;;;4969877;28;20128;-83
2023/10/13 07:43:10;;;;;;;28.25;9.63;;;;;;;;;;4968881;28;20137;-84
2023/10/13 07:45:40;;;;;;;25.75;10.05;;;;;;;;;;4956330;28;20051;-84
2023/10/13 07:48:19;;;;;;;25.00;9.48;;;;;;;;;;4959896;28;20061;-83
2023/10/13 07:50:46;;;;;;;20.88;9.02;;;;;;;;;;4974152;28;20058;-83
2023/10/13 07:53:24;;;;;;;23.05;10.27;;;;;;;;;;4971546;28;20047;-83
2023/10/13 07:56:02;;;;;;;22.02;9.10;;;;;;;;;;4970946;28;20479;-82
2023/10/13 07:58:28;;;;;;;25.33;8.65;;;;;;;;;;4971216;28;20065;-82
2023/10/13 08:01:07;;;;;;;31.42;10.18;;;;;;;;;;4960685;28;20047;-83
2023/10/13 08:03:46;;;;;;;30.73;9.23;;;;;;;;;;4978107;28;20059;-83
2023/10/13 08:08:43;;;;;;;26.05;9.07;;;;;;;;;;4969931;28;20046;-83
2023/10/13 08:11:34;;;;;;;24.30;9.23;;;;;;;;;;4966442;28;20105;-83
2023/10/13 08:16:47;;;;;;;22.33;8.25;;;;;;;;;;4971093;28;20051;-83
2023/10/13 08:19:17;;;;;;;16.30;6.88;;;;;;;;;;4971394;28;20549;-82
2023/10/13 08:21:51;;;;;;;15.35;8.60;;;;;;;;;;4970579;28;20082;-82
2023/10/13 08:43:16;;;;;;;15.65;7.63;;;;;;;;;;4962183;28;20046;-82
2023/10/13 08:48:08;;;;;;;17.08;10.75;;;;;;;;;;4971764;28;20495;-83
2023/10/13 09:04:21;;;;;;;17.00;10.37;;;;;;;;;;4968433;28;20051;-82
2023/10/13 09:09:58;;;;;;;13.13;9.45;;;;;;;;;;4967727;28;20066;-82
2023/10/13 09:17:48;;;;;;;16.20;10.17;;;;;;;;;;4971511;28;20554;-82
2023/10/13 09:20:42;;;;;;;17.65;10.40;;;;;;;;;;4960096;28;20047;-82
2023/10/13 09:23:24;;;;;;;19.83;10.65;;;;;;;;;;4958925;28;20050;-82
2023/10/13 09:25:57;;;;;;;17.27;10.13;;;;;;;;;;4971018;28;20043;-82
2023/10/13 09:28:25;;;;;;;18.77;10.52;;;;;;;;;;4973266;28;20046;-82
2023/10/13 09:30:52;;;;;;;14.60;9.05;;;;;;;;;;4973569;28;20066;-82
2023/10/13 09:33:32;;;;;;;19.38;10.00;;;;;;;;;;4972116;28;20073;-82
2023/10/13 09:35:59;;;;;;;17.83;9.23;;;;;;;;;;4974275;28;20047;-82
2023/10/13 09:38:25;;;;;;;16.05;8.95;;;;;;;;;;4971629;28;20097;-82
2023/10/13 09:40:57;;;;;;;12.88;8.77;;;;;;;;;;4972082;28;20050;-82
2023/10/13 09:43:25;;;;;;;13.80;9.40;;;;;;;;;;4972710;28;20078;-81
2023/10/13 09:46:07;;;;;;;21.00;9.40;;;;;;;;;;4975025;28;20089;-82
2023/10/13 09:48:33;;;;;;;16.55;8.85;;;;;;;;;;4972523;28;20511;-82
2023/10/13 09:51:00;;;;;;;14.88;8.73;;;;;;;;;;4972724;28;20063;-82
2023/10/13 09:53:26;;;;;;;15.82;8.35;;;;;;;;;;4973815;28;20483;-82
2023/10/13 09:56:19;;;;;;;15.23;8.20;;;;;;;;;;4974388;28;20134;-82
2023/10/13 09:59:12;;;;;;;14.70;8.02;;;;;;;;;;4990434;28;20035;-82
2023/10/13 10:01:50;;;;;;;19.33;8.82;;;;;;;;;;4972363;28;20063;-82
2023/10/13 10:04:18;;;;;;;17.60;8.65;;;;;;;;;;4973314;28;20101;-82
2023/10/13 10:06:57;;;;;;;16.38;8.00;;;;;;;;;;4970859;28;20469;-82
2023/10/13 10:09:39;;;;;;;12.98;7.55;;;;;;;;;;4970535;28;20101;-82
2023/10/13 10:12:29;;;;;;;21.42;8.60;;;;;;;;;;4969458;28;20082;-81
2023/10/13 10:15:20;;;;;;;15.70;8.88;;;;;;;;;;4972629;28;20058;-81
2023/10/13 10:17:46;;;;;;;14.85;8.57;;;;;;;;;;4972348;28;20502;-82
2023/10/13 10:20:19;;;;;;;17.45;7.90;;;;;;;;;;4972147;28;20430;-82
2023/10/13 10:22:58;;;;;;;18.10;7.50;;;;;;;;;;4972302;28;20497;-82
2023/10/13 10:25:29;;;;;;;14.48;7.60;;;;;;;;;;4973239;28;20507;-82
2023/10/13 10:27:59;;;;;;;16.42;6.78;;;;;;;;;;4972935;28;20466;-82
2023/10/13 10:30:27;;;;;;;18.02;7.57;;;;;;;;;;4971773;28;20110;-81
2023/10/13 10:32:59;;;;;;;15.40;7.40;;;;;;;;;;4973368;28;20542;-82
2023/10/13 10:35:32;;;;;;;18.27;7.15;;;;;;;;;;4972308;28;20050;-81
2023/10/13 10:41:04;;;;;;;17.27;7.85;;;;;;;;;;4983027;28;20062;-81
2023/10/13 10:43:43;;;;;;;14.85;7.18;;;;;;;;;;4972457;28;20047;-82
2023/10/13 10:46:12;;;;;;;14.07;7.32;;;;;;;;;;4969332;28;20051;-82
2023/10/13 10:48:42;;;;;;;20.00;6.40;;;;;;;;;;4970025;28;21152;-82
2023/10/13 10:51:14;;;;;;;17.10;7.28;;;;;;;;;;4970387;28;20078;-82
2023/10/13 10:53:44;;;;;;;19.30;7.00;;;;;;;;;;4967137;28;20054;-82
2023/10/13 10:56:20;;;;;;;18.20;7.63;;;;;;;;;;4964056;28;20050;-82
2023/10/13 10:58:46;;;;;;;16.48;7.80;;;;;;;;;;4967962;28;20053;-82
2023/10/13 11:01:21;;;;;;;17.00;7.10;;;;;;;;;;4970878;28;20619;-81
2023/10/13 11:06:49;;;;;;;18.08;7.63;;;;;;;;;;4983877;28;20086;-82
2023/10/13 11:09:18;;;;;;;15.30;7.50;;;;;;;;;;4970557;28;20047;-82
2023/10/13 11:11:52;;;;;;;17.75;7.18;;;;;;;;;;4963461;28;20053;-82
2023/10/13 11:14:25;;;;;;;15.95;6.57;;;;;;;;;;4964319;28;20051;-81
2023/10/13 11:16:53;;;;;;;14.52;6.35;;;;;;;;;;4972748;28;20414;-81
2023/10/13 11:19:25;;;;;;;18.27;7.03;;;;;;;;;;4968022;28;20145;-82
2023/10/13 11:21:53;;;;;;;17.30;7.10;;;;;;;;;;4970225;28;20438;-82
2023/10/13 11:24:21;;;;;;;20.05;7.60;;;;;;;;;;4967356;28;20509;-83
2023/10/13 11:26:50;;;;;;;25.10;8.15;;;;;;;;;;4972565;28;20082;-84
2023/10/13 11:29:19;;;;;;;29.27;11.98;;;;;;;;;;4967997;28;20066;-83
2023/10/13 11:31:45;;;;;;;23.80;9.38;;;;;;;;;;4970943;28;20051;-84
2023/10/13 11:34:16;;;;;;;35.22;8.73;;;;;;;;;;4971367;28;20223;-83
2023/10/13 11:36:42;;;;;;;27.77;10.43;;;;;;;;;;4966714;28;20051;-82
2023/10/13 11:39:09;;;;;;;29.92;9.27;;;;;;;;;;4963517;28;20050;-83
2023/10/13 11:41:38;;;;;;;37.00;10.90;;;;;;;;;;4962504;28;20062;-82
2023/10/13 11:44:23;;;;;;;46.35;12.55;;;;;;;;;;4962749;28;20089;-83
2023/10/13 11:46:55;;;;;;;52.72;12.18;;;;;;;;;;4962819;28;20057;-82
2023/10/13 11:52:09;;;;;;;36.53;12.02;;;;;;;;;;4973340;28;20058;-82
2023/10/13 11:54:38;;;;;;;38.60;11.52;;;;;;;;;;4976198;28;20038;-83
2023/10/13 11:57:07;;;;;;;37.92;11.50;;;;;;;;;;4969958;28;20451;-82
2023/10/13 11:59:36;;;;;;;33.60;10.90;;;;;;;;;;4972897;28;20081;-83
2023/10/13 12:04:43;;;;;;;32.47;10.38;;;;;;;;;;4968089;28;20124;-83
2023/10/13 12:12:23;;;;;;;22.42;9.00;;;;;;;;;;4970846;28;20525;-83
2023/10/13 12:14:52;;;;;;;24.83;9.05;;;;;;;;;;4953391;28;20511;-83
2023/10/13 12:17:25;;;;;;;28.60;9.85;;;;;;;;;;4952658;28;20047;-84
2023/10/13 12:19:57;;;;;;;37.20;11.52;;;;;;;;;;4969956;28;20514;-82
2023/10/13 12:22:35;;;;;;;39.95;12.55;;;;;;;;;;4969667;28;20086;-82
2023/10/13 12:25:04;;;;;;;38.65;12.20;;;;;;;;;;4966361;28;20047;-82
2023/10/13 12:27:45;;;;;;;29.30;10.32;;;;;;;;;;4969638;28;20129;-82
2023/10/13 12:30:13;;;;;;;34.13;11.50;;;;;;;;;;4969663;28;20051;-81
2023/10/13 12:32:44;;;;;;;43.80;14.70;;;;;;;;;;4972234;28;20086;-83
2023/10/13 12:53:48;;;;;;;27.70;11.38;;;;;;;;;;4977029;28;20046;-84
2023/10/13 12:56:15;;;;;;;28.45;10.75;;;;;;;;;;4974867;28;20050;-84
2023/10/13 12:58:41;;;;;;;30.67;11.07;;;;;;;;;;4974143;28;20058;-85
2023/10/13 13:01:07;;;;;;;37.97;12.50;;;;;;;;;;4972744;28;20562;-84
2023/10/13 13:03:33;;;;;;;31.98;11.82;;;;;;;;;;4974707;28;20082;-84
2023/10/13 13:06:07;;;;;;;32.88;11.85;;;;;;;;;;4974841;28;20054;-83
2023/10/13 13:08:35;;;;;;;33.42;12.07;;;;;;;;;;4972780;28;20048;-84
2023/10/13 13:11:04;;;;;;;37.42;12.00;;;;;;;;;;4973047;28;20447;-85
2023/10/13 13:13:31;;;;;;;32.78;12.07;;;;;;;;;;4970600;28;20039;-84
2023/10/13 13:15:57;;;;;;;35.97;12.57;;;;;;;;;;4958075;28;20133;-83
2023/10/13 13:18:23;;;;;;;38.67;11.80;;;;;;;;;;4965533;28;20062;-84
2023/10/13 13:20:55;;;;;;;35.13;12.20;;;;;;;;;;4959306;28;20043;-84
2023/10/13 13:23:25;;;;;;;29.63;11.50;;;;;;;;;;4972482;28;20131;-84
2023/10/13 13:25:51;;;;;;;32.42;11.23;;;;;;;;;;4974030;28;20054;-84
2023/10/13 13:28:18;;;;;;;31.70;11.15;;;;;;;;;;4968452;28;20141;-85
2023/10/13 13:30:44;;;;;;;32.60;12.35;;;;;;;;;;4986216;28;20051;-84
2023/10/13 13:33:14;;;;;;;38.75;12.88;;;;;;;;;;4972997;28;20502;-84
2023/10/13 13:35:43;;;;;;;33.38;11.95;;;;;;;;;;4976452;28;20050;-85
2023/10/13 13:38:30;;;;;;;29.83;11.18;;;;;;;;;;4972563;28;20058;-84
2023/10/13 13:40:56;;;;;;;36.65;12.30;;;;;;;;;;4971564;28;20410;-83
2023/10/13 13:44:13;;;;;;;37.03;12.82;;;;;;;;;;4989934;28;20039;-84
2023/10/13 13:46:11;;;;;;;30.02;11.00;;;;;;;;;;4969073;28;20439;-84
2023/10/13 13:48:37;;;;;;;31.27;12.70;;;;;;;;;;4974388;28;20066;-84
2023/10/13 13:51:19;;;;;;;32.67;11.05;;;;;;;;;;4970841;28;20062;-80
2023/10/13 13:53:47;;;;;;;29.27;11.40;;;;;;;;;;4970426;28;20050;-81
2023/10/13 13:56:18;;;;;;;29.98;11.25;;;;;;;;;;4973013;28;20047;-81
2023/10/13 13:58:44;;;;;;;38.22;11.68;;;;;;;;;;4975917;28;20510;-79
2023/10/13 14:01:19;;;;;;;37.28;12.82;;;;;;;;;;4964059;28;20051;-79
2023/10/13 14:03:46;;;;;;;43.45;12.55;;;;;;;;;;4970627;28;20392;-78
2023/10/13 14:06:18;;;;;;;33.90;12.85;;;;;;;;;;4972483;28;20058;-77
2023/10/13 14:08:48;;;;;;;32.80;12.00;;;;;;;;;;4965678;28;20074;-77
2023/10/13 14:11:21;;;;;;;33.50;11.77;;;;;;;;;;4970856;28;20050;-81
2023/10/13 14:13:48;;;;;;;32.72;11.20;;;;;;;;;;4973106;28;20057;-78
2023/10/13 14:16:18;;;;;;;30.08;11.43;;;;;;;;;;4972947;28;20440;-77
2023/10/13 14:18:45;;;;;;;35.92;10.45;;;;;;;;;;4973538;28;20049;-76
2023/10/13 14:21:16;;;;;;;33.67;10.20;;;;;;;;;;4971994;28;20486;-76
2023/10/13 14:23:44;;;;;;;34.90;10.68;;;;;;;;;;4969235;28;20098;-78
2023/10/13 14:26:12;;;;;;;29.63;10.20;;;;;;;;;;4967468;28;20492;-77
2023/10/13 14:28:50;;;;;;;30.25;10.70;;;;;;;;;;4973634;28;20414;-76
2023/10/13 14:31:16;;;;;;;35.60;11.30;;;;;;;;;;4970357;28;20126;-78
2023/10/13 14:33:42;;;;;;;30.33;10.93;;;;;;;;;;4965815;28;20061;-78
2023/10/13 14:36:10;;;;;;;32.42;12.80;;;;;;;;;;4969626;28;20480;-77
2023/10/13 14:38:36;;;;;;;33.95;11.43;;;;;;;;;;4969734;28;20125;-77
2023/10/13 14:41:02;;;;;;;30.15;10.85;;;;;;;;;;4960688;28;20133;-76
2023/10/13 14:43:28;;;;;;;32.05;10.82;;;;;;;;;;4965888;28;20100;-76
2023/10/13 14:45:54;;;;;;;32.70;11.50;;;;;;;;;;4971448;28;20129;-77
2023/10/13 14:48:24;;;;;;;34.70;11.35;;;;;;;;;;4971640;28;20108;-77
2023/10/13 14:50:50;;;;;;;36.67;11.80;;;;;;;;;;4968919;28;20499;-77
2023/10/13 14:53:19;;;;;;;29.73;10.70;;;;;;;;;;4971127;28;20050;-78
2023/10/13 14:55:45;;;;;;;37.25;11.57;;;;;;;;;;4970271;28;20054;-77
2023/10/13 14:58:16;;;;;;;33.85;12.10;;;;;;;;;;4969992;28;20051;-78
2023/10/13 15:00:45;;;;;;;33.45;12.25;;;;;;;;;;4971070;28;20047;-78
2023/10/13 15:03:11;;;;;;;40.83;14.05;;;;;;;;;;4961431;28;20105;-77
2023/10/13 15:05:43;;;;;;;40.47;13.27;;;;;;;;;;4966922;28;20487;-77
2023/10/13 15:08:10;;;;;;;32.42;10.82;;;;;;;;;;4966242;28;20046;-76
2023/10/13 15:10:36;;;;;;;33.25;10.98;;;;;;;;;;4964140;28;20483;-77
2023/10/13 15:13:05;;;;;;;38.60;12.00;;;;;;;;;;4972882;28;20047;-78
2023/10/13 15:15:32;;;;;;;27.95;11.73;;;;;;;;;;4967561;28;20061;-79
2023/10/13 15:17:59;;;;;;;34.63;11.82;;;;;;;;;;4971168;28;20051;-77
2023/10/13 15:20:25;;;;;;;35.50;11.60;;;;;;;;;;4968526;28;20061;-78
2023/10/13 15:22:59;;;;;;;31.48;11.98;;;;;;;;;;4969947;28;20053;-78
2023/10/13 15:25:29;;;;;;;29.25;11.20;;;;;;;;;;4973191;28;20053;-77
2023/10/13 15:28:05;;;;;;;27.60;11.02;;;;;;;;;;4968880;28;20055;-77
2023/10/13 15:31:04;;;;;;;32.97;10.98;;;;;;;;;;4963891;28;20390;-77
2023/10/13 15:33:30;;;;;;;35.60;11.20;;;;;;;;;;4972436;28;20043;-77
2023/10/13 15:35:57;;;;;;;39.67;11.80;;;;;;;;;;4965508;28;20046;-78
2023/10/13 15:38:24;;;;;;;30.52;12.07;;;;;;;;;;4970376;28;20153;-76
2023/10/13 15:40:54;;;;;;;36.60;10.73;;;;;;;;;;4969858;28;20499;-78
2023/10/13 15:43:21;;;;;;;34.30;11.23;;;;;;;;;;4972480;28;20089;-83
2023/10/13 15:45:47;;;;;;;34.70;10.93;;;;;;;;;;4969702;28;20390;-83
2023/10/13 15:48:15;;;;;;;36.40;11.15;;;;;;;;;;4988546;28;20054;-78
2023/10/13 15:50:41;;;;;;;30.83;9.65;;;;;;;;;;4972032;28;20130;-80
2023/10/13 15:53:12;;;;;;;31.90;10.68;;;;;;;;;;4969471;28;20142;-78
2023/10/13 15:55:38;;;;;;;31.08;10.93;;;;;;;;;;4958011;28;20063;-77
2023/10/13 15:58:08;;;;;;;29.00;10.23;;;;;;;;;;4966995;28;20043;-76
2023/10/13 16:00:35;;;;;;;36.22;9.98;;;;;;;;;;4964977;28;20046;-76
2023/10/13 16:03:01;;;;;;;37.03;11.50;;;;;;;;;;4961298;28;20110;-78
2023/10/13 16:05:34;;;;;;;29.45;9.10;;;;;;;;;;4969865;28;20054;-76
2023/10/13 16:08:00;;;;;;;31.60;10.63;;;;;;;;;;4975775;28;20080;-77
2023/10/13 16:10:29;;;;;;;29.13;9.70;;;;;;;;;;4970488;28;20054;-80
2023/10/13 16:12:57;;;;;;;27.58;9.52;;;;;;;;;;4968194;28;20049;-78
2023/10/13 16:15:23;;;;;;;28.00;8.52;;;;;;;;;;4967453;28;20059;-78
2023/10/13 16:17:53;;;;;;;29.92;9.73;;;;;;;;;;4980413;28;20483;-78
2023/10/13 16:20:20;;;;;;;39.10;15.77;;;;;;;;;;4976389;28;20053;-78
2023/10/13 16:22:47;;;;;;;28.27;9.60;;;;;;;;;;4968323;28;20482;-78
2023/10/13 16:25:14;;;;;;;25.40;8.05;;;;;;;;;;4971871;28;20061;-78
2023/10/13 16:27:43;;;;;;;24.50;8.55;;;;;;;;;;4967535;28;20046;-75
2023/10/13 16:30:14;;;;;;;28.23;8.88;;;;;;;;;;4968182;28;20074;-80
2023/10/13 16:32:41;;;;;;;27.48;8.27;;;;;;;;;;4971830;28;20157;-81
2023/10/13 16:35:07;;;;;;;24.35;7.75;;;;;;;;;;4970239;28;20474;-81
2023/10/13 16:37:33;;;;;;;27.90;8.80;;;;;;;;;;4968193;28;20059;-81
2023/10/13 16:40:05;;;;;;;33.35;8.52;;;;;;;;;;4959175;28;20039;-84
2023/10/13 16:42:37;;;;;;;32.63;9.00;;;;;;;;;;4951755;28;20039;-83
2023/10/13 16:45:20;;;;;;;36.00;8.55;;;;;;;;;;4962648;28;20047;-84
2023/10/13 16:47:46;;;;;;;25.92;7.65;;;;;;;;;;4969073;28;20047;-81
2023/10/13 16:50:14;;;;;;;30.08;8.48;;;;;;;;;;4971034;28;20069;-82
2023/10/13 16:52:40;;;;;;;25.00;7.18;;;;;;;;;;4971198;28;20101;-82
2023/10/13 16:55:09;;;;;;;30.88;7.30;;;;;;;;;;4968935;28;20529;-76
2023/10/13 16:57:36;;;;;;;27.38;8.13;;;;;;;;;;4966103;28;20103;-83
2023/10/13 17:00:06;;;;;;;28.73;7.20;;;;;;;;;;4991546;28;20043;-81
2023/10/13 17:02:32;;;;;;;28.15;8.65;;;;;;;;;;4976366;28;20588;-78
2023/10/13 17:04:58;;;;;;;32.83;8.13;;;;;;;;;;4971913;28;20042;-78
2023/10/13 17:07:24;;;;;;;30.80;8.05;;;;;;;;;;4971653;28;20077;-78
2023/10/13 17:09:51;;;;;;;28.85;8.05;;;;;;;;;;4968534;28;20046;-78
2023/10/13 17:12:18;;;;;;;25.80;8.65;;;;;;;;;;4961572;28;20482;-78
2023/10/13 17:14:44;;;;;;;27.02;8.00;;;;;;;;;;4968339;28;20062;-77
2023/10/13 17:17:10;;;;;;;27.90;7.95;;;;;;;;;;4970961;28;20039;-78
2023/10/13 17:19:36;;;;;;;25.13;7.22;;;;;;;;;;4974743;28;20097;-78
2023/10/13 17:22:03;;;;;;;27.00;8.82;;;;;;;;;;4971393;28;20050;-78
2023/10/13 17:24:31;;;;;;;26.10;7.88;;;;;;;;;;4969810;28;20070;-78
2023/10/13 17:27:00;;;;;;;22.05;7.72;;;;;;;;;;4982867;28;20121;-78
2023/10/13 17:29:28;;;;;;;28.50;8.57;;;;;;;;;;4973361;28;20097;-78
2023/10/13 17:31:55;;;;;;;29.25;7.97;;;;;;;;;;4973190;28;20090;-78
2023/10/13 17:34:21;;;;;;;32.83;8.68;;;;;;;;;;4974410;28;20101;-79
2023/10/13 17:36:48;;;;;;;28.60;8.60;;;;;;;;;;4975041;28;20545;-78
2023/10/13 17:39:17;;;;;;;31.98;8.10;;;;;;;;;;4973004;28;20118;-78
2023/10/13 17:41:48;;;;;;;29.00;10.57;;;;;;;;;;4983870;28;20046;-78
2023/10/13 17:44:14;;;;;;;25.08;8.15;;;;;;;;;;4983841;28;20368;-78
2023/10/13 17:46:41;;;;;;;27.02;8.50;;;;;;;;;;4956027;29;20055;-78
2023/10/13 17:49:07;;;;;;;26.65;8.25;;;;;;;;;;4956298;28;20197;-78
2023/10/13 17:51:33;;;;;;;23.83;7.75;;;;;;;;;;4971902;28;20054;-78
2023/10/13 17:53:59;;;;;;;34.25;11.10;;;;;;;;;;4973451;28;20051;-78
2023/10/13 17:56:25;;;;;;;30.20;8.95;;;;;;;;;;4975399;28;20055;-78
2023/10/13 17:58:53;;;;;;;26.02;8.50;;;;;;;;;;4972063;28;20055;-78
2023/10/13 18:01:20;;;;;;;25.85;7.90;;;;;;;;;;4974504;28;20051;-78
2023/10/13 18:03:49;;;;;;;25.40;7.65;;;;;;;;;;4971587;28;20117;-78
2023/10/13 18:06:16;;;;;;;20.85;7.07;;;;;;;;;;4975161;28;20051;-78
2023/10/13 18:08:45;;;;;;;27.00;8.32;;;;;;;;;;4960380;28;20385;-78
2023/10/13 18:11:14;;;;;;;27.05;7.53;;;;;;;;;;4971063;28;20087;-78
2023/10/13 18:13:41;;;;;;;23.85;7.35;;;;;;;;;;4963174;28;20143;-78
2023/10/13 18:16:14;;;;;;;21.42;6.80;;;;;;;;;;4960186;28;20082;-78
2023/10/13 18:18:41;;;;;;;19.35;7.03;;;;;;;;;;4964444;28;20046;-77
2023/10/13 18:21:08;;;;;;;21.73;6.90;;;;;;;;;;4973225;28;20051;-77
2023/10/13 18:23:40;;;;;;;25.08;7.22;;;;;;;;;;4974334;28;20053;-79
2023/10/13 18:26:06;;;;;;;26.02;8.43;;;;;;;;;;4986748;28;20461;-78
2023/10/13 18:28:35;;;;;;;25.17;7.28;;;;;;;;;;4994107;28;20375;-78
2023/10/13 18:31:05;;;;;;;19.42;7.32;;;;;;;;;;4975327;28;20498;-78